Time;durP1;ratioP1;P1;durP2;ratioP2;P2;SDS_P1;SDS_P2;PMS_P1;PMS_P2;Temp;Humidity;BMP_temperature;BMP_pressure;BME280_temperature;BME280_humidity;BME280_pressure;Samples;Min_cycle;Max_cycle;Signal;HPM_P1;HPM_P2
2022/11/21 00:01:34;;;;;;;21.00;15.80;;;0.90;99.90;;;;;;5005554;28;20127;-59
2022/11/21 00:04:00;;;;;;;21.08;16.20;;;0.90;99.90;;;;;;5004754;28;20049;-58
2022/11/21 00:06:26;;;;;;;25.05;17.55;;;0.70;99.90;;;;;;5005210;28;20537;-59
2022/11/21 00:08:51;;;;;;;23.52;17.25;;;0.70;99.90;;;;;;5005914;28;20042;-59
2022/11/21 00:11:17;;;;;;;24.75;17.88;;;0.70;99.90;;;;;;5006391;28;20050;-58
2022/11/21 00:13:44;;;;;;;27.13;19.33;;;1.60;99.90;;;;;;5006473;28;20542;-58
2022/11/21 00:16:12;;;;;;;25.50;18.02;;;0.70;99.90;;;;;;4988011;28;20042;-60
2022/11/21 00:18:38;;;;;;;24.42;17.48;;;0.70;99.90;;;;;;4988642;28;20096;-58
2022/11/21 00:21:12;;;;;;;23.02;17.15;;;1.10;99.90;;;;;;5006023;28;20054;-59
2022/11/21 00:23:37;;;;;;;24.20;17.35;;;0.60;99.90;;;;;;5006595;28;20651;-59
2022/11/21 00:26:08;;;;;;;26.00;18.63;;;0.40;99.90;;;;;;5005338;28;20076;-58
2022/11/21 00:28:34;;;;;;;26.05;18.98;;;0.70;99.90;;;;;;5005758;28;20382;-59
2022/11/21 00:31:00;;;;;;;26.75;18.95;;;0.40;99.90;;;;;;5006024;28;20050;-58
2022/11/21 00:33:26;;;;;;;26.42;18.67;;;2.00;99.90;;;;;;5005258;28;20052;-58
2022/11/21 00:35:51;;;;;;;27.33;19.63;;;2.10;99.90;;;;;;4987462;28;20073;-59
2022/11/21 00:38:17;;;;;;;25.55;17.98;;;0.60;99.90;;;;;;5005909;28;20409;-57
2022/11/21 00:40:43;;;;;;;25.50;18.35;;;0.60;99.90;;;;;;5005667;28;20045;-59
2022/11/21 00:43:09;;;;;;;23.92;18.45;;;0.60;99.90;;;;;;5004503;28;20050;-58
2022/11/21 00:45:35;;;;;;;27.75;18.70;;;0.60;99.90;;;;;;5005730;28;20455;-58
2022/11/21 00:48:01;;;;;;;26.13;18.92;;;2.50;99.90;;;;;;5005513;28;20033;-58
2022/11/21 00:50:26;;;;;;;24.38;18.65;;;1.20;99.90;;;;;;5004230;28;20058;-59
2022/11/21 00:52:56;;;;;;;25.50;18.20;;;0.60;99.90;;;;;;5005694;28;20317;-58
2022/11/21 00:55:23;;;;;;;23.88;18.13;;;0.60;99.90;;;;;;5005827;28;20116;-59
2022/11/21 00:57:49;;;;;;;26.23;19.63;;;0.60;99.90;;;;;;5005185;28;20081;-59
2022/11/21 01:00:15;;;;;;;25.13;18.77;;;0.60;99.90;;;;;;5004769;28;20038;-59
2022/11/21 01:02:41;;;;;;;24.48;18.83;;;0.60;99.90;;;;;;5005861;28;20125;-59
2022/11/21 01:05:07;;;;;;;24.00;18.27;;;0.30;99.90;;;;;;5004355;28;20125;-59
2022/11/21 01:07:32;;;;;;;25.95;18.75;;;0.30;99.90;;;;;;5005153;28;20046;-59
2022/11/21 01:09:58;;;;;;;25.65;18.95;;;0.20;99.90;;;;;;5004152;28;20115;-58
2022/11/21 01:12:24;;;;;;;25.73;19.08;;;0.10;99.90;;;;;;4986592;28;20471;-59
2022/11/21 01:14:49;;;;;;;25.90;19.23;;;0.20;99.90;;;;;;5004937;28;20046;-58
2022/11/21 01:17:15;;;;;;;25.23;18.70;;;0.10;99.90;;;;;;5004408;28;20046;-60
2022/11/21 01:19:41;;;;;;;24.58;18.60;;;0.10;99.90;;;;;;4986115;28;20515;-58
2022/11/21 01:22:06;;;;;;;25.23;18.30;;;0.20;99.90;;;;;;5004682;28;20062;-58
2022/11/21 01:24:32;;;;;;;22.50;17.60;;;0.10;99.90;;;;;;5004944;28;20050;-58
2022/11/21 01:26:58;;;;;;;23.67;18.08;;;0.10;99.90;;;;;;5003729;28;20045;-56
2022/11/21 01:29:23;;;;;;;24.65;18.80;;;0.10;99.90;;;;;;5003780;28;20097;-58
2022/11/21 01:31:49;;;;;;;25.13;18.33;;;0.10;99.90;;;;;;5003952;28;20038;-59
2022/11/21 01:34:15;;;;;;;27.05;18.10;;;0.00;99.90;;;;;;5003824;28;20109;-60
2022/11/21 01:36:41;;;;;;;25.35;18.65;;;-0.10;99.90;;;;;;5002976;28;20065;-59
2022/11/21 01:39:07;;;;;;;24.55;18.30;;;-0.20;99.90;;;;;;5003872;28;20045;-58
2022/11/21 01:41:36;;;;;;;23.17;17.65;;;-0.20;99.90;;;;;;5003824;28;20046;-58
2022/11/21 01:44:20;;;;;;;25.25;18.13;;;0.20;99.90;;;;;;5003041;28;20408;-59
2022/11/21 01:46:47;;;;;;;25.63;18.60;;;-0.20;99.90;;;;;;5004030;28;20457;-59
2022/11/21 01:49:24;;;;;;;24.63;18.30;;;-0.30;99.90;;;;;;5004537;28;20423;-59
2022/11/21 01:52:00;;;;;;;25.30;18.52;;;-0.50;99.90;;;;;;5003425;28;20070;-58
2022/11/21 01:54:41;;;;;;;25.92;18.33;;;-0.50;99.90;;;;;;5003740;28;20053;-57
2022/11/21 01:57:14;;;;;;;26.98;19.27;;;-0.70;99.90;;;;;;5004476;28;20559;-59
2022/11/21 01:59:43;;;;;;;25.58;19.55;;;-0.70;99.90;;;;;;5004966;28;20408;-58
2022/11/21 02:02:11;;;;;;;26.58;18.80;;;-0.70;99.90;;;;;;5003352;28;20244;-59
2022/11/21 02:04:40;;;;;;;26.35;17.85;;;-0.60;99.90;;;;;;4985130;28;20197;-58
2022/11/21 02:07:06;;;;;;;25.20;18.60;;;-0.70;99.90;;;;;;4978106;28;20050;-59
2022/11/21 02:09:34;;;;;;;24.85;18.23;;;-0.80;99.90;;;;;;5004129;28;20315;-59
2022/11/21 02:12:25;;;;;;;27.10;18.52;;;-0.80;99.90;;;;;;5003500;28;20060;-58
2022/11/21 02:14:53;;;;;;;28.95;18.20;;;-0.60;99.90;;;;;;5076108;23;20057;-58
2022/11/21 02:17:19;;;;;;;24.58;17.95;;;-0.50;99.90;;;;;;5022561;28;20082;-59
2022/11/21 02:19:59;;;;;;;25.83;19.38;;;-0.40;99.90;;;;;;5004653;28;20049;-59
2022/11/21 02:22:53;;;;;;;27.25;19.48;;;-0.10;99.90;;;;;;5023482;28;20080;-59
2022/11/21 02:25:20;;;;;;;27.42;19.33;;;-0.50;99.90;;;;;;5023114;28;20041;-59
2022/11/21 02:27:49;;;;;;;28.48;19.75;;;-0.50;99.90;;;;;;5023146;28;20037;-58
2022/11/21 02:30:16;;;;;;;27.13;18.90;;;-0.40;99.90;;;;;;5023191;28;20117;-59
2022/11/21 02:32:47;;;;;;;27.85;19.15;;;-0.20;99.90;;;;;;5022917;28;20053;-59
2022/11/21 02:35:15;;;;;;;26.05;18.65;;;0.10;99.90;;;;;;5022567;28;20088;-59
2022/11/21 02:37:43;;;;;;;27.00;19.10;;;0.00;99.90;;;;;;5021486;28;20048;-58
2022/11/21 02:40:13;;;;;;;26.42;18.85;;;-0.20;99.90;;;;;;5022954;28;20095;-59
2022/11/21 02:42:56;;;;;;;26.77;19.55;;;0.00;99.90;;;;;;5022253;28;20089;-59
2022/11/21 02:45:41;;;;;;;27.15;19.83;;;0.00;99.90;;;;;;5023356;28;20049;-58
2022/11/21 02:48:07;;;;;;;27.95;19.48;;;-0.10;99.90;;;;;;5022722;28;20503;-58
2022/11/21 02:50:35;;;;;;;29.52;20.00;;;-0.10;99.90;;;;;;5020853;28;20053;-58
2022/11/21 02:53:02;;;;;;;28.52;19.63;;;-0.20;99.90;;;;;;5022791;28;20037;-58
2022/11/21 02:55:28;;;;;;;26.88;20.23;;;0.00;99.90;;;;;;5022891;28;20072;-58
2022/11/21 02:57:54;;;;;;;25.58;18.80;;;0.00;99.90;;;;;;5022247;28;20614;-57
2022/11/21 03:00:20;;;;;;;27.17;19.23;;;0.00;99.90;;;;;;5022311;28;20081;-60
2022/11/21 03:02:46;;;;;;;27.05;19.75;;;0.00;99.90;;;;;;5022898;28;20044;-58
2022/11/21 03:05:14;;;;;;;27.58;19.27;;;0.10;99.90;;;;;;5020695;28;20064;-59
2022/11/21 03:07:40;;;;;;;27.05;19.30;;;0.10;99.90;;;;;;5021691;28;20042;-59
2022/11/21 03:10:06;;;;;;;29.58;19.50;;;0.10;99.90;;;;;;5004143;28;20048;-59
2022/11/21 03:12:35;;;;;;;28.65;20.45;;;0.00;99.90;;;;;;5022830;28;20041;-58
2022/11/21 03:15:01;;;;;;;28.17;20.58;;;0.00;99.90;;;;;;5021615;28;20054;-58
2022/11/21 03:17:26;;;;;;;30.40;20.67;;;0.10;99.90;;;;;;5022774;28;20048;-59
2022/11/21 03:19:52;;;;;;;28.67;20.38;;;-0.10;99.90;;;;;;5022428;28;20077;-59
2022/11/21 03:22:17;;;;;;;28.60;19.80;;;0.10;99.90;;;;;;5022503;28;20175;-59
2022/11/21 03:24:43;;;;;;;28.40;20.23;;;0.10;99.90;;;;;;5021233;28;20528;-59
2022/11/21 03:27:09;;;;;;;27.83;19.25;;;-0.10;99.90;;;;;;5021980;28;20077;-59
2022/11/21 03:29:34;;;;;;;29.45;20.30;;;0.20;99.90;;;;;;5021751;28;20041;-58
2022/11/21 03:32:00;;;;;;;27.42;20.33;;;0.50;99.90;;;;;;5021345;28;20583;-58
2022/11/21 03:34:25;;;;;;;30.48;21.42;;;-0.10;99.90;;;;;;5021078;28;20124;-59
2022/11/21 03:36:51;;;;;;;31.80;21.80;;;0.00;99.90;;;;;;5004731;28;20052;-59
2022/11/21 03:39:17;;;;;;;30.35;21.10;;;-0.10;99.90;;;;;;5004724;28;20511;-59
2022/11/21 03:41:42;;;;;;;29.40;21.23;;;0.10;99.90;;;;;;5020893;28;20048;-59
2022/11/21 03:44:10;;;;;;;30.23;22.02;;;0.10;99.90;;;;;;5021790;28;20045;-59
2022/11/21 03:46:38;;;;;;;31.38;21.67;;;0.00;99.90;;;;;;5021850;28;20088;-60
2022/11/21 03:49:05;;;;;;;33.33;22.27;;;0.60;99.90;;;;;;5022700;28;20114;-59
2022/11/21 03:51:31;;;;;;;32.25;23.05;;;0.20;99.90;;;;;;5020909;28;20056;-59
2022/11/21 03:53:56;;;;;;;34.03;23.40;;;0.10;99.90;;;;;;5021342;28;20041;-59
2022/11/21 03:56:23;;;;;;;31.58;22.33;;;0.20;99.90;;;;;;5021591;28;20104;-60
2022/11/21 03:58:48;;;;;;;35.17;23.92;;;0.20;99.90;;;;;;5021453;28;20145;-59
2022/11/21 04:01:14;;;;;;;31.50;23.08;;;0.30;99.90;;;;;;5018126;28;20124;-58
2022/11/21 04:03:41;;;;;;;28.83;21.48;;;0.40;99.90;;;;;;5021918;28;20126;-59
2022/11/21 04:06:08;;;;;;;32.25;22.88;;;0.50;99.90;;;;;;5003114;28;20407;-58
2022/11/21 04:08:33;;;;;;;31.13;22.58;;;0.40;99.90;;;;;;5020878;28;20068;-59
2022/11/21 04:10:59;;;;;;;34.10;23.80;;;0.30;99.90;;;;;;5022478;28;20492;-58
2022/11/21 04:13:25;;;;;;;30.33;22.45;;;0.30;99.90;;;;;;5021948;28;20123;-59
2022/11/21 04:15:50;;;;;;;32.72;22.88;;;0.40;99.90;;;;;;5004897;28;20675;-58
2022/11/21 04:18:16;;;;;;;29.50;20.65;;;0.40;99.90;;;;;;5024233;28;20049;-59
2022/11/21 04:20:42;;;;;;;30.63;22.60;;;0.20;99.90;;;;;;5023260;28;20514;-60
2022/11/21 04:23:08;;;;;;;32.65;23.08;;;0.30;99.90;;;;;;5025473;28;20172;-58
2022/11/21 04:25:33;;;;;;;30.73;23.27;;;0.30;99.90;;;;;;5024380;28;20051;-58
2022/11/21 04:28:00;;;;;;;33.80;24.42;;;0.40;99.90;;;;;;5025068;28;20041;-58
2022/11/21 04:30:27;;;;;;;33.53;23.65;;;0.20;99.90;;;;;;5024638;28;20099;-58
2022/11/21 04:32:54;;;;;;;35.42;24.90;;;0.30;99.90;;;;;;5025532;28;20038;-58
2022/11/21 04:35:20;;;;;;;34.78;24.67;;;0.40;99.90;;;;;;5024056;28;20145;-58
2022/11/21 04:37:46;;;;;;;32.30;24.25;;;0.40;99.90;;;;;;5007502;28;20052;-58
2022/11/21 04:40:13;;;;;;;34.35;23.98;;;0.50;99.90;;;;;;5007348;28;20132;-58
2022/11/21 04:42:46;;;;;;;33.55;24.23;;;0.70;99.90;;;;;;5024713;28;20053;-57
2022/11/21 04:45:13;;;;;;;34.10;24.08;;;0.70;99.90;;;;;;5025205;28;20072;-59
2022/11/21 04:47:40;;;;;;;33.97;24.42;;;0.60;99.90;;;;;;5025199;28;20071;-58
2022/11/21 04:50:06;;;;;;;33.72;24.85;;;0.60;99.90;;;;;;5024101;28;20702;-58
2022/11/21 04:52:32;;;;;;;33.13;24.13;;;0.60;99.90;;;;;;5024713;28;20050;-59
2022/11/21 04:54:58;;;;;;;31.30;21.65;;;0.50;99.90;;;;;;5024677;28;20195;-58
2022/11/21 04:57:26;;;;;;;34.28;24.27;;;0.50;99.90;;;;;;5025110;28;20045;-59
2022/11/21 04:59:51;;;;;;;35.33;24.17;;;1.70;99.90;;;;;;5024918;28;20443;-59
2022/11/21 05:02:17;;;;;;;32.25;24.10;;;0.30;99.90;;;;;;5025054;28;20046;-58
2022/11/21 05:04:42;;;;;;;32.42;23.00;;;1.60;99.90;;;;;;5023502;28;20104;-58
2022/11/21 05:07:08;;;;;;;33.75;24.45;;;0.20;99.90;;;;;;5024088;28;20116;-58
2022/11/21 05:09:34;;;;;;;31.67;23.20;;;0.30;99.90;;;;;;5023441;28;20132;-58
2022/11/21 05:14:44;;;;;;;33.88;23.70;;;0.50;99.90;;;;;;5024062;28;20053;-58
2022/11/21 05:17:09;;;;;;;32.22;23.38;;;0.30;99.90;;;;;;5006024;28;20625;-58
2022/11/21 05:19:35;;;;;;;34.38;24.80;;;1.20;99.90;;;;;;5023323;28;20133;-58
2022/11/21 05:22:00;;;;;;;37.13;23.50;;;0.30;99.90;;;;;;5024275;28;20041;-59
2022/11/21 05:24:26;;;;;;;33.45;23.70;;;0.70;99.90;;;;;;5024188;28;20142;-59
2022/11/21 05:26:53;;;;;;;32.83;23.35;;;0.20;99.90;;;;;;5024097;28;20046;-59
2022/11/21 05:29:19;;;;;;;33.78;22.98;;;0.20;99.90;;;;;;5006777;28;20037;-57
2022/11/21 05:31:44;;;;;;;32.15;21.88;;;0.10;99.90;;;;;;5024688;28;20041;-59
2022/11/21 05:34:10;;;;;;;32.17;22.80;;;0.10;99.90;;;;;;5023524;28;20124;-59
2022/11/21 05:36:36;;;;;;;32.97;22.13;;;0.10;99.90;;;;;;5024312;28;20088;-58
2022/11/21 05:39:01;;;;;;;33.78;23.02;;;0.00;99.90;;;;;;5024497;28;20121;-59
2022/11/21 05:41:27;;;;;;;37.10;23.60;;;0.40;99.90;;;;;;5024527;28;20047;-58
2022/11/21 05:43:52;;;;;;;35.38;24.75;;;-0.10;99.90;;;;;;5023781;28;20035;-58
2022/11/21 05:46:20;;;;;;;33.90;24.15;;;0.00;99.90;;;;;;5023316;28;20045;-58
2022/11/21 05:48:47;;;;;;;33.35;23.42;;;-0.10;99.90;;;;;;5023894;28;20045;-59
2022/11/21 05:51:14;;;;;;;34.72;24.15;;;-0.20;99.90;;;;;;5005727;28;20106;-58
2022/11/21 05:53:39;;;;;;;34.30;24.88;;;-0.40;99.90;;;;;;5024208;28;20492;-58
2022/11/21 05:56:14;;;;;;;33.72;23.85;;;1.80;99.90;;;;;;5023129;28;20049;-58
2022/11/21 05:58:41;;;;;;;36.00;24.75;;;-0.30;99.90;;;;;;5023044;28;20577;-59
2022/11/21 06:01:08;;;;;;;37.65;26.05;;;-0.20;99.90;;;;;;5023468;28;20080;-58
2022/11/21 06:03:36;;;;;;;36.50;24.58;;;0.20;99.90;;;;;;5023245;28;20037;-58
2022/11/21 06:06:05;;;;;;;33.30;24.55;;;0.90;99.90;;;;;;5022459;28;20042;-59
2022/11/21 06:08:33;;;;;;;33.90;24.77;;;-0.30;99.90;;;;;;5022673;28;20056;-60
2022/11/21 06:11:00;;;;;;;33.92;24.65;;;-0.20;99.90;;;;;;5023994;28;20099;-60
2022/11/21 06:13:26;;;;;;;38.55;25.13;;;-0.20;99.90;;;;;;5023759;28;20079;-58
2022/11/21 06:16:00;;;;;;;35.85;25.08;;;-0.30;99.90;;;;;;5022583;28;20049;-59
2022/11/21 06:18:27;;;;;;;37.38;26.08;;;-0.40;99.90;;;;;;5023426;28;20057;-59
2022/11/21 06:20:53;;;;;;;34.90;24.52;;;-0.20;99.90;;;;;;5021870;28;20057;-58
2022/11/21 06:23:19;;;;;;;36.08;25.25;;;-0.20;99.90;;;;;;5021916;28;20125;-58
2022/11/21 06:25:45;;;;;;;39.28;27.00;;;-0.30;99.90;;;;;;5023120;28;20179;-59
2022/11/21 06:28:11;;;;;;;39.13;26.25;;;-0.50;99.90;;;;;;5021645;28;20084;-59
2022/11/21 06:30:37;;;;;;;37.00;25.13;;;1.30;99.90;;;;;;5022763;28;20045;-59
2022/11/21 06:33:04;;;;;;;36.47;24.48;;;-0.50;99.90;;;;;;5022215;28;20538;-59
2022/11/21 06:35:30;;;;;;;37.38;24.95;;;-0.60;99.90;;;;;;5021567;28;20472;-59
2022/11/21 06:37:57;;;;;;;34.72;23.70;;;-0.60;99.90;;;;;;5022861;28;20077;-58
2022/11/21 06:40:23;;;;;;;35.45;24.25;;;-0.60;99.90;;;;;;5021698;28;20049;-59
2022/11/21 06:42:49;;;;;;;36.97;24.23;;;-0.60;99.90;;;;;;5022121;28;20049;-58
2022/11/21 06:45:15;;;;;;;37.88;25.80;;;-0.70;99.90;;;;;;5022921;28;20655;-58
2022/11/21 06:47:40;;;;;;;38.88;25.65;;;-0.80;99.90;;;;;;5022707;28;20146;-58
2022/11/21 06:50:07;;;;;;;37.40;24.45;;;-0.90;99.90;;;;;;5021837;28;20050;-59
2022/11/21 06:52:34;;;;;;;34.55;24.00;;;-0.90;99.90;;;;;;5023010;28;20391;-59
2022/11/21 06:55:00;;;;;;;36.10;23.65;;;-0.80;99.90;;;;;;5022768;28;20088;-58
2022/11/21 06:57:25;;;;;;;35.47;25.25;;;-0.70;99.90;;;;;;5004774;28;20504;-58
2022/11/21 06:59:51;;;;;;;37.85;25.60;;;-0.90;99.90;;;;;;5004702;28;20042;-58
2022/11/21 07:02:17;;;;;;;39.10;26.45;;;-0.90;99.90;;;;;;5004880;28;20045;-59
2022/11/21 07:04:42;;;;;;;37.72;25.77;;;-0.80;99.90;;;;;;5021036;28;20331;-58
2022/11/21 07:07:08;;;;;;;40.42;24.52;;;0.10;99.90;;;;;;5022150;28;20041;-59
2022/11/21 07:09:34;;;;;;;34.85;22.67;;;-0.80;99.90;;;;;;5021783;28;20042;-59
2022/11/21 07:14:45;;;;;;;33.88;23.65;;;-0.80;99.90;;;;;;5021319;28;20045;-59
2022/11/21 07:17:12;;;;;;;34.63;22.17;;;-0.90;99.90;;;;;;5022412;28;20122;-59
2022/11/21 07:19:38;;;;;;;35.92;24.25;;;-0.80;99.90;;;;;;5021485;28;20535;-59
2022/11/21 07:22:04;;;;;;;40.80;25.83;;;-0.90;99.90;;;;;;5022449;28;20069;-60
2022/11/21 07:24:29;;;;;;;35.08;24.20;;;-0.40;99.90;;;;;;5004519;28;20469;-59
2022/11/21 07:26:55;;;;;;;37.95;23.38;;;-0.30;99.90;;;;;;5022228;28;20504;-58
2022/11/21 07:29:21;;;;;;;35.10;22.58;;;-0.90;99.90;;;;;;5022203;28;20045;-59
2022/11/21 07:31:46;;;;;;;32.83;20.23;;;-0.90;99.90;;;;;;5021665;28;20046;-59
2022/11/21 07:34:12;;;;;;;36.97;24.38;;;-0.80;99.90;;;;;;5021859;28;20107;-59
2022/11/21 07:36:37;;;;;;;34.00;21.35;;;-0.70;99.90;;;;;;5022480;28;20532;-59
2022/11/21 07:39:03;;;;;;;37.03;22.88;;;-0.80;99.90;;;;;;5022608;28;20575;-59
2022/11/21 07:41:29;;;;;;;36.97;24.35;;;-0.80;99.90;;;;;;5021630;28;20047;-59
2022/11/21 07:43:54;;;;;;;38.05;24.63;;;-0.80;99.90;;;;;;5021885;28;20042;-59
2022/11/21 07:46:20;;;;;;;37.97;24.98;;;1.20;99.90;;;;;;5018526;28;20037;-59
2022/11/21 07:48:45;;;;;;;37.22;24.52;;;-0.60;99.90;;;;;;5011491;28;20049;-59
2022/11/21 07:51:11;;;;;;;38.15;24.83;;;-0.70;99.90;;;;;;5011964;28;20492;-57
2022/11/21 07:53:37;;;;;;;34.92;23.42;;;-0.70;99.90;;;;;;5020491;28;20515;-60
2022/11/21 07:56:03;;;;;;;37.95;23.90;;;-0.60;99.90;;;;;;5026108;28;20095;-59
2022/11/21 07:58:29;;;;;;;34.60;23.05;;;-0.70;99.90;;;;;;5009279;28;20060;-59
2022/11/21 08:00:55;;;;;;;42.65;24.27;;;-0.60;99.90;;;;;;5024727;28;20049;-59
2022/11/21 08:03:21;;;;;;;35.60;22.15;;;0.30;99.90;;;;;;5026146;28;20484;-59
2022/11/21 08:05:47;;;;;;;35.28;24.42;;;0.10;99.90;;;;;;5024905;28;20049;-59
2022/11/21 08:08:14;;;;;;;37.85;23.98;;;-0.40;99.90;;;;;;5025073;28;20115;-58
2022/11/21 08:10:44;;;;;;;37.72;24.10;;;-0.50;99.90;;;;;;5025490;28;20092;-58
2022/11/21 08:13:11;;;;;;;36.65;25.00;;;-0.40;99.90;;;;;;5025418;28;20049;-60
2022/11/21 08:15:37;;;;;;;39.17;24.02;;;0.50;99.90;;;;;;5024626;28;20076;-60
2022/11/21 08:18:11;;;;;;;34.92;22.45;;;-0.20;99.90;;;;;;5020509;28;20406;-59
2022/11/21 08:20:37;;;;;;;37.78;25.02;;;0.20;99.90;;;;;;5015894;28;20045;-59
2022/11/21 08:23:04;;;;;;;34.42;23.65;;;1.80;99.90;;;;;;4998449;28;20053;-64
2022/11/21 08:25:32;;;;;;;37.80;25.05;;;0.10;99.90;;;;;;5004077;28;20037;-64
2022/11/21 08:27:58;;;;;;;36.15;23.80;;;-0.20;99.90;;;;;;5025471;28;20041;-64
2022/11/21 08:30:24;;;;;;;39.15;25.90;;;-0.20;99.90;;;;;;5025855;28;20045;-65
2022/11/21 08:32:50;;;;;;;36.55;23.85;;;-0.20;99.90;;;;;;5024891;28;20041;-64
2022/11/21 08:35:16;;;;;;;37.80;26.63;;;1.10;99.90;;;;;;5024634;28;20045;-65
2022/11/21 08:37:42;;;;;;;33.50;23.55;;;-0.10;99.90;;;;;;5025323;28;20042;-65
2022/11/21 08:40:08;;;;;;;38.42;26.05;;;-0.20;99.90;;;;;;5025424;28;20042;-66
2022/11/21 08:42:34;;;;;;;36.00;23.30;;;-0.10;99.90;;;;;;5024892;28;20053;-64
2022/11/21 08:44:59;;;;;;;37.63;27.13;;;0.10;99.90;;;;;;4990666;28;20042;-64
2022/11/21 08:47:25;;;;;;;37.42;24.58;;;0.10;99.90;;;;;;5007942;28;20049;-63
2022/11/21 08:49:50;;;;;;;39.05;22.98;;;1.80;99.90;;;;;;5024239;28;20033;-63
2022/11/21 08:52:16;;;;;;;29.27;20.60;;;1.60;99.90;;;;;;5024687;28;20089;-64
2022/11/21 08:54:43;;;;;;;37.28;21.48;;;0.20;99.90;;;;;;5025209;28;20049;-64
2022/11/21 08:57:09;;;;;;;36.50;23.40;;;0.20;99.90;;;;;;5025191;28;20042;-64
2022/11/21 08:59:35;;;;;;;34.58;24.75;;;0.20;99.90;;;;;;5024811;28;20353;-62
2022/11/21 09:02:01;;;;;;;36.45;24.77;;;0.60;99.90;;;;;;5024556;28;20056;-64
2022/11/21 09:04:26;;;;;;;38.78;25.17;;;1.50;99.90;;;;;;5023718;28;20052;-63
2022/11/21 09:06:52;;;;;;;37.67;26.17;;;0.70;99.90;;;;;;5022661;28;20045;-64
2022/11/21 09:09:18;;;;;;;36.50;25.88;;;0.90;99.90;;;;;;5005709;28;20041;-63
2022/11/21 09:11:43;;;;;;;34.63;24.48;;;1.10;99.90;;;;;;5023629;28;20099;-64
2022/11/21 09:19:37;;;;;;;34.43;24.43;;;2.10;99.90;;;;;;5022917;28;20087;-64
2022/11/21 09:22:03;;;;;;;30.08;20.58;;;1.50;99.90;;;;;;5024113;28;20038;-57
2022/11/21 09:24:29;;;;;;;29.77;22.58;;;1.60;99.90;;;;;;5024565;28;20107;-58
2022/11/21 09:26:54;;;;;;;29.35;20.90;;;1.90;99.90;;;;;;5017558;28;20038;-58
2022/11/21 09:29:20;;;;;;;32.40;22.38;;;2.00;99.90;;;;;;5019949;28;20033;-57
2022/11/21 09:31:45;;;;;;;31.85;20.75;;;2.00;99.90;;;;;;5022491;28;20651;-58
2022/11/21 09:34:11;;;;;;;30.05;22.90;;;2.10;99.90;;;;;;5023598;28;20041;-59
2022/11/21 09:36:37;;;;;;;35.17;24.10;;;2.20;99.90;;;;;;4998535;28;20124;-58
2022/11/21 09:39:03;;;;;;;32.92;20.02;;;1.90;99.90;;;;;;5020980;28;20087;-57
2022/11/21 09:41:51;;;;;;;30.10;21.73;;;1.70;99.90;;;;;;5023425;28;20079;-57
2022/11/21 09:44:48;;;;;;;32.03;22.30;;;1.60;99.90;;;;;;5004667;28;20125;-59
2022/11/21 09:47:28;;;;;;;32.90;24.65;;;1.60;99.90;;;;;;5005267;28;20429;-59
2022/11/21 09:50:05;;;;;;;28.25;15.55;;;1.50;99.90;;;;;;5002903;28;20042;-54
2022/11/21 09:52:51;;;;;;;31.48;21.67;;;1.50;99.90;;;;;;5004361;28;20081;-57
2022/11/21 09:55:45;;;;;;;35.63;25.58;;;1.30;99.90;;;;;;5003214;28;20046;-58
2022/11/21 09:58:26;;;;;;;34.63;25.13;;;1.40;99.90;;;;;;5004446;28;20057;-58
2022/11/21 10:00:52;;;;;;;33.60;21.02;;;1.30;99.90;;;;;;4985414;28;20045;-58
2022/11/21 10:03:21;;;;;;;36.13;22.67;;;1.10;99.90;;;;;;4984833;28;20433;-56
2022/11/21 10:05:58;;;;;;;24.27;14.90;;;1.20;99.90;;;;;;5020842;28;20076;-58
2022/11/21 10:08:48;;;;;;;32.63;23.55;;;1.10;99.90;;;;;;5003754;28;20068;-58
2022/11/21 10:12:35;;;;;;;24.80;15.02;;;1.20;99.90;;;;;;5006965;28;20034;-56
2022/11/21 10:14:42;;;;;;;29.70;19.63;;;1.20;99.90;;;;;;5022717;28;20049;-58
2022/11/21 10:17:42;;;;;;;32.03;24.10;;;1.10;99.90;;;;;;5023864;28;20422;-58
2022/11/21 10:20:18;;;;;;;33.25;23.63;;;1.20;99.90;;;;;;5010130;28;20108;-57
2022/11/21 10:22:55;;;;;;;33.35;22.17;;;1.30;99.90;;;;;;5013558;28;20049;-56
2022/11/21 10:25:27;;;;;;;30.60;20.23;;;1.30;99.90;;;;;;5022497;28;20048;-58
2022/11/21 10:28:16;;;;;;;32.80;23.13;;;1.30;99.90;;;;;;5022698;28;20049;-58
2022/11/21 10:30:44;;;;;;;31.23;22.95;;;1.50;99.90;;;;;;5021969;28;20041;-57
2022/11/21 10:33:33;;;;;;;34.50;23.58;;;1.50;99.90;;;;;;5022059;28;20072;-61
2022/11/21 10:36:07;;;;;;;33.42;23.73;;;1.40;99.90;;;;;;5022654;28;20476;-55
2022/11/21 10:38:38;;;;;;;32.20;22.17;;;1.60;99.90;;;;;;5022618;28;20115;-57
2022/11/21 10:41:12;;;;;;;30.00;21.15;;;1.60;99.90;;;;;;5004813;28;20052;-58
2022/11/21 10:46:22;;;;;;;30.10;21.95;;;1.60;99.90;;;;;;5023255;28;20045;-58
2022/11/21 10:49:00;;;;;;;29.80;20.33;;;3.30;99.90;;;;;;5022733;28;20407;-56
2022/11/21 10:51:34;;;;;;;30.48;22.23;;;1.60;99.90;;;;;;5023665;28;20081;-57
2022/11/21 10:56:55;;;;;;;30.92;21.75;;;1.70;99.90;;;;;;5023239;28;20053;-59
2022/11/21 10:59:29;;;;;;;26.90;18.77;;;1.80;99.90;;;;;;5023562;28;20052;-56
2022/11/21 11:02:01;;;;;;;31.85;21.33;;;1.90;99.90;;;;;;5022600;28;20548;-57
2022/11/21 11:04:31;;;;;;;29.85;20.42;;;1.80;99.90;;;;;;5022018;28;20471;-59
2022/11/21 11:06:58;;;;;;;30.10;22.05;;;1.90;99.90;;;;;;5023313;28;20065;-59
2022/11/21 11:09:32;;;;;;;28.30;21.05;;;1.80;99.90;;;;;;5021040;28;20049;-60
2022/11/21 11:12:23;;;;;;;29.75;22.45;;;2.80;99.90;;;;;;5021956;28;20049;-58
2022/11/21 11:14:55;;;;;;;32.53;22.77;;;2.00;99.90;;;;;;5021817;28;20127;-60
2022/11/21 11:17:30;;;;;;;29.30;21.45;;;2.20;99.90;;;;;;5022525;28;20098;-58
2022/11/21 11:20:06;;;;;;;26.92;20.98;;;2.30;99.90;;;;;;5021847;28;20400;-59
2022/11/21 11:22:32;;;;;;;28.95;19.48;;;2.40;99.90;;;;;;5022981;28;20038;-60
2022/11/21 11:24:58;;;;;;;25.50;17.90;;;2.40;99.90;;;;;;5022843;28;20186;-59
2022/11/21 11:27:28;;;;;;;27.55;21.33;;;2.30;99.90;;;;;;5022490;28;20095;-60
2022/11/21 11:29:53;;;;;;;26.73;18.02;;;2.50;99.90;;;;;;5023130;28;20559;-59
2022/11/21 11:32:19;;;;;;;26.15;18.13;;;2.40;99.90;;;;;;5005689;28;20053;-61
2022/11/21 11:35:07;;;;;;;24.77;16.50;;;2.40;99.90;;;;;;5022233;28;20490;-58
2022/11/21 11:37:40;;;;;;;18.15;10.85;;;2.50;99.90;;;;;;5022982;28;20607;-56
2022/11/21 11:40:24;;;;;;;22.83;16.27;;;4.10;99.90;;;;;;5022946;28;20049;-55
2022/11/21 11:49:16;;;;;;;21.67;15.43;;;2.60;99.90;;;;;;5021689;28;20064;-59
2022/11/21 11:51:47;;;;;;;19.23;12.98;;;2.80;99.90;;;;;;5005336;28;20088;-57
2022/11/21 11:54:31;;;;;;;22.27;15.73;;;3.10;99.90;;;;;;5004895;28;20125;-58
2022/11/21 11:56:58;;;;;;;20.08;11.55;;;2.80;99.90;;;;;;5022806;28;20103;-59
2022/11/21 11:59:35;;;;;;;18.38;12.82;;;2.80;99.90;;;;;;5005214;28;20046;-59
2022/11/21 12:02:15;;;;;;;18.77;12.02;;;2.80;99.90;;;;;;5022530;28;20045;-56
2022/11/21 12:05:01;;;;;;;19.45;14.90;;;3.00;99.90;;;;;;5003706;28;20092;-59
2022/11/21 12:07:38;;;;;;;17.42;11.05;;;3.50;99.90;;;;;;5016060;28;20053;-57
2022/11/21 12:13:32;;;;;;;19.13;14.13;;;3.80;99.90;;;;;;5014103;28;20049;-59
2022/11/21 12:16:03;;;;;;;17.80;12.50;;;3.80;99.90;;;;;;5022793;28;20055;-58
2022/11/21 12:19:14;;;;;;;18.85;13.52;;;4.20;99.90;;;;;;5022208;28;20126;-56
2022/11/21 12:21:39;;;;;;;17.83;13.27;;;3.50;99.90;;;;;;4941484;29;20050;-57
2022/11/21 12:24:10;;;;;;;17.88;13.48;;;3.50;99.90;;;;;;5005634;28;20061;-59
2022/11/21 12:26:55;;;;;;;19.98;14.07;;;3.60;99.90;;;;;;5004535;28;20050;-58
2022/11/21 12:29:42;;;;;;;17.75;12.68;;;3.50;99.90;;;;;;5004818;28;20128;-55
2022/11/21 12:32:26;;;;;;;18.00;11.68;;;3.50;99.90;;;;;;5022591;28;20492;-58
2022/11/21 12:35:05;;;;;;;17.58;12.90;;;3.50;99.90;;;;;;5020981;28;20052;-58
2022/11/21 12:37:55;;;;;;;15.25;10.30;;;3.60;99.90;;;;;;5022824;28;20369;-58
2022/11/21 12:40:46;;;;;;;15.82;11.30;;;3.60;99.90;;;;;;5025636;28;20049;-58
2022/11/21 12:43:38;;;;;;;14.13;9.50;;;3.70;99.90;;;;;;5026157;28;20052;-58
2022/11/21 12:46:23;;;;;;;14.88;9.68;;;3.60;99.90;;;;;;5026285;28;20118;-59
2022/11/21 12:55:31;;;;;;;14.30;10.93;;;3.60;99.90;;;;;;5025795;28;20054;-58
2022/11/21 12:58:19;;;;;;;14.27;8.73;;;3.70;99.90;;;;;;5025892;28;20128;-58
2022/11/21 13:01:12;;;;;;;14.93;10.10;;;3.60;99.90;;;;;;5024835;28;20053;-58
2022/11/21 13:03:44;;;;;;;15.75;11.02;;;3.70;99.90;;;;;;5025011;28;20388;-58
2022/11/21 13:06:18;;;;;;;14.35;8.60;;;3.70;99.90;;;;;;5024716;28;20480;-60
2022/11/21 13:08:47;;;;;;;17.45;12.43;;;3.80;99.90;;;;;;5024135;28;20045;-59
2022/11/21 13:14:39;;;;;;;20.38;14.27;;;3.80;99.90;;;;;;5024718;28;20050;-58
2022/11/21 13:17:23;;;;;;;23.00;15.68;;;3.80;99.90;;;;;;5005618;28;20041;-56
2022/11/21 13:20:21;;;;;;;13.95;8.55;;;3.90;99.90;;;;;;5004215;28;20104;-58
2022/11/21 13:22:49;;;;;;;14.60;9.05;;;3.90;99.90;;;;;;5006150;28;20065;-58